createdAt,value
2019-01-11T00:03:30.050Z,98806.78
2019-01-11T00:05:58.518Z,98810.67
2019-01-11T00:08:26.925Z,98802.42
2019-01-11T00:11:14.668Z,98810.55
2019-01-11T00:13:43.077Z,98814.50
2019-01-11T00:16:11.720Z,98805.13
2019-01-11T00:18:40.114Z,98805.24
2019-01-11T00:21:08.626Z,98801.53
2019-01-11T00:23:37.265Z,98796.52
2019-01-11T00:26:05.658Z,98804.55
2019-01-11T00:28:34.336Z,98804.78
2019-01-11T00:31:02.726Z,98802.72
2019-01-11T00:33:31.128Z,98800.45
2019-01-11T00:35:59.535Z,98802.49
2019-01-11T00:38:27.925Z,98800.64
2019-01-11T00:40:56.333Z,98794.89
2019-01-11T00:43:24.734Z,98791.99
2019-01-11T00:45:53.392Z,98793.00
2019-01-11T00:48:21.802Z,98789.10
2019-01-11T00:50:50.194Z,98791.81
2019-01-11T00:53:18.588Z,98788.63
2019-01-11T00:55:47.318Z,98794.81
2019-01-11T00:58:15.946Z,98798.39
2019-01-11T01:00:44.340Z,98794.59
2019-01-11T01:03:12.981Z,98801.70
2019-01-11T01:05:41.380Z,98802.42
2019-01-11T01:08:09.927Z,98802.92
2019-01-11T01:10:38.399Z,98806.23
2019-01-11T01:13:06.793Z,98807.06
2019-01-11T01:15:35.274Z,98812.50
2019-01-11T01:18:03.737Z,98799.88
2019-01-11T01:20:32.131Z,98801.67
2019-01-11T01:23:20.181Z,98802.16
2019-01-11T01:25:48.575Z,98802.38
2019-01-11T01:28:17.235Z,98794.78
2019-01-11T01:30:45.638Z,98798.69
2019-01-11T01:33:14.297Z,98799.38
2019-01-11T01:35:42.704Z,98803.75
2019-01-11T01:38:11.182Z,98790.41
2019-01-11T01:40:39.574Z,98794.47
2019-01-11T01:43:07.981Z,98795.70
2019-01-11T01:45:36.701Z,98799.48
2019-01-11T01:48:45.355Z,98800.16
2019-01-11T01:51:13.781Z,98800.60
2019-01-11T01:53:42.179Z,98798.28
2019-01-11T01:56:30.161Z,98796.09
2019-01-11T01:58:58.817Z,98799.28
2019-01-11T02:01:27.202Z,98797.33
2019-01-11T02:03:55.670Z,98797.92
2019-01-11T02:06:24.066Z,98801.03
2019-01-11T02:08:52.466Z,98805.49
2019-01-11T02:11:20.868Z,98803.22
2019-01-11T02:13:49.593Z,98798.88
2019-01-11T02:16:57.925Z,98805.85
2019-01-11T02:19:32.770Z,98805.14
2019-01-11T02:21:56.944Z,98807.59
2019-01-11T02:24:25.354Z,98807.20
2019-01-11T02:26:53.815Z,98801.50
2019-01-11T02:29:22.210Z,98810.08
2019-01-11T02:31:50.623Z,98809.56
2019-01-11T02:34:19.015Z,98803.98
2019-01-11T02:36:47.408Z,98797.81
2019-01-11T02:39:15.820Z,98799.73
2019-01-11T02:41:44.209Z,98808.41
2019-01-11T02:44:12.940Z,98807.73
2019-01-11T02:46:41.378Z,98808.69
2019-01-11T02:49:10.109Z,98811.27
2019-01-11T02:51:38.796Z,98811.52
2019-01-11T02:54:07.207Z,98812.83
2019-01-11T02:56:35.602Z,98817.56
2019-01-11T03:01:58.591Z,98807.89
2019-01-11T03:04:46.670Z,98804.70
2019-01-11T03:07:15.145Z,98798.94
2019-01-11T03:09:43.540Z,98790.88
2019-01-11T03:12:11.935Z,98786.87
2019-01-11T03:14:40.689Z,98789.50
2019-01-11T03:17:09.085Z,98795.70
2019-01-11T03:19:37.474Z,98794.30
2019-01-11T03:22:06.236Z,98791.16
2019-01-11T03:24:34.641Z,98793.02
2019-01-11T03:27:03.300Z,98790.94
2019-01-11T03:29:31.709Z,98795.21
2019-01-11T03:32:00.107Z,98794.06
2019-01-11T03:34:28.501Z,98797.92
2019-01-11T03:36:56.913Z,98791.27
2019-01-11T03:39:25.609Z,98789.96
2019-01-11T03:44:43.354Z,98787.25
2019-01-11T03:47:11.745Z,98781.59
2019-01-11T03:49:40.136Z,98786.28
2019-01-11T03:52:08.799Z,98793.33
2019-01-11T03:54:37.193Z,98781.97
2019-01-11T03:57:05.869Z,98789.86
2019-01-11T03:59:34.279Z,98788.97
2019-01-11T04:02:02.673Z,98789.72
2019-01-11T04:04:31.065Z,98785.14
2019-01-11T04:06:59.478Z,98791.16
2019-01-11T04:09:27.873Z,98788.13
2019-01-11T04:11:56.546Z,98787.16
2019-01-11T04:14:24.952Z,98789.80
2019-01-11T04:16:53.611Z,98791.95
2019-01-11T04:19:22.009Z,98790.88
2019-01-11T04:27:09.653Z,98796.84
2019-01-11T04:29:38.046Z,98796.52
2019-01-11T04:32:06.438Z,98787.48
2019-01-11T04:34:34.849Z,98789.55
2019-01-11T04:37:03.238Z,98793.55
2019-01-11T04:39:51.225Z,98794.22
2019-01-11T04:42:19.626Z,98795.02
2019-01-11T04:44:48.015Z,98797.98
2019-01-11T04:47:16.447Z,98796.80
2019-01-11T04:49:44.841Z,98791.10
2019-01-11T04:52:13.265Z,98795.20
2019-01-11T04:54:41.673Z,98801.72
2019-01-11T04:57:10.069Z,98804.11
2019-01-11T04:59:57.822Z,98795.28
2019-01-11T05:02:26.223Z,98804.05
2019-01-11T05:04:54.862Z,98802.88
2019-01-11T05:07:23.278Z,98802.94
2019-01-11T05:09:51.673Z,98794.52
2019-01-11T05:12:20.304Z,98796.87
2019-01-11T05:14:48.996Z,98800.44
2019-01-11T05:17:17.386Z,98795.45
2019-01-11T05:19:45.782Z,98798.75
2019-01-11T05:22:14.193Z,98803.09
2019-01-11T05:24:42.609Z,98801.01
2019-01-11T05:27:11.000Z,98801.23
2019-01-11T05:29:39.677Z,98798.10
2019-01-11T05:32:08.065Z,98794.97
2019-01-11T05:34:36.460Z,98794.64
2019-01-11T05:37:04.947Z,98796.09
2019-01-11T05:39:33.595Z,98794.73
2019-01-11T05:42:01.986Z,98793.45
2019-01-11T05:44:30.661Z,98795.47
2019-01-11T05:46:59.356Z,98789.44
2019-01-11T05:49:47.391Z,98784.02
2019-01-11T05:52:16.031Z,98786.83
2019-01-11T05:54:44.424Z,98785.14
2019-01-11T05:57:12.833Z,98787.84
2019-01-11T05:59:41.516Z,98793.40
2019-01-11T06:02:10.305Z,98793.52
2019-01-11T06:10:49.231Z,98796.97
2019-01-11T06:13:17.624Z,98792.78
2019-01-11T06:15:46.018Z,98803.34
2019-01-11T06:18:14.425Z,98804.57
2019-01-11T06:20:42.913Z,98804.88
2019-01-11T06:23:11.311Z,98807.89
2019-01-11T06:25:39.959Z,98807.98
2019-01-11T06:28:08.373Z,98813.48
2019-01-11T06:30:36.762Z,98811.25
2019-01-11T06:33:05.227Z,98809.89
2019-01-11T06:38:09.364Z,98801.14
2019-01-11T06:40:38.010Z,98798.70
2019-01-11T06:43:06.693Z,98799.25
2019-01-11T06:45:35.381Z,98798.95
2019-01-11T06:51:11.926Z,98795.88
2019-01-11T06:53:40.318Z,98801.53
2019-01-11T06:56:08.779Z,98799.39
2019-01-11T06:58:37.518Z,98794.53
2019-01-11T07:01:06.213Z,98791.81
2019-01-11T07:03:34.606Z,98798.53
2019-01-11T07:06:03.269Z,98794.46
2019-01-11T07:08:31.751Z,98801.12
2019-01-11T07:11:00.154Z,98791.13
2019-01-11T07:13:28.550Z,98793.53
2019-01-11T07:15:56.963Z,98798.70
2019-01-11T07:18:25.355Z,98804.48
2019-01-11T07:20:53.746Z,98796.83
2019-01-11T07:23:22.148Z,98796.53
2019-01-11T07:25:50.541Z,98794.77
2019-01-11T07:28:18.943Z,98791.24
2019-01-11T07:31:06.537Z,98788.18
2019-01-11T07:36:43.146Z,98796.66
2019-01-11T07:42:00.774Z,98796.00
2019-01-11T07:44:29.170Z,98797.70
2019-01-11T07:49:52.358Z,98798.70
2019-01-11T07:52:20.986Z,98796.82
2019-01-11T07:54:49.386Z,98795.08
2019-01-11T07:57:17.802Z,98796.26
2019-01-11T07:59:46.183Z,98801.91
2019-01-11T08:02:14.573Z,98804.48
2019-01-11T08:04:42.983Z,98798.44
2019-01-11T08:07:11.429Z,98804.48
2019-01-11T08:09:39.837Z,98806.00
2019-01-11T08:12:08.237Z,98799.38
2019-01-11T08:14:36.909Z,98799.23
2019-01-11T08:17:05.374Z,98801.43
2019-01-11T08:19:33.780Z,98804.83
2019-01-11T08:25:50.520Z,98804.98
2019-01-11T08:30:54.281Z,98811.67
2019-01-11T08:33:22.681Z,98810.58
2019-01-11T08:35:51.387Z,98805.92
2019-01-11T08:38:19.790Z,98807.45
2019-01-11T08:40:48.185Z,98810.58
2019-01-11T08:43:16.589Z,98812.21
2019-01-11T08:45:44.983Z,98804.98
2019-01-11T08:48:13.461Z,98814.45
2019-01-11T08:50:41.913Z,98812.63
2019-01-11T08:53:10.656Z,98815.93
2019-01-11T08:55:39.050Z,98819.73
2019-01-11T08:58:07.457Z,98825.59
2019-01-11T09:00:55.183Z,98825.31
2019-01-11T09:03:23.659Z,98820.52
2019-01-11T09:08:41.141Z,98815.58
2019-01-11T09:11:09.604Z,98820.45
2019-01-11T09:13:38.028Z,98815.16
2019-01-11T09:16:06.821Z,98814.81
2019-01-11T09:21:24.676Z,98815.41
2019-01-11T09:23:53.064Z,98816.10
2019-01-11T09:26:21.456Z,98820.03
2019-01-11T09:28:49.861Z,98822.47
2019-01-11T09:31:18.496Z,98821.11
2019-01-11T09:33:59.663Z,98818.05
2019-01-11T09:36:28.054Z,98818.30
2019-01-11T09:38:56.444Z,98807.48
2019-01-11T09:41:24.845Z,98808.84
2019-01-11T09:43:53.234Z,98811.90
2019-01-11T09:46:21.631Z,98811.02
2019-01-11T09:48:50.275Z,98810.80
2019-01-11T09:51:18.795Z,98812.16
2019-01-11T09:53:47.409Z,98811.17
2019-01-11T09:56:16.056Z,98806.38
2019-01-11T09:58:44.448Z,98807.98
2019-01-11T10:04:02.232Z,98810.03
2019-01-11T10:09:19.726Z,98812.06
2019-01-11T10:14:37.240Z,98827.41
2019-01-11T10:17:05.909Z,98819.92
2019-01-11T10:19:34.596Z,98818.91
2019-01-11T10:22:02.995Z,98815.32
2019-01-11T10:24:31.457Z,98806.78
2019-01-11T10:26:59.860Z,98805.24
2019-01-11T10:29:28.255Z,98808.45
2019-01-11T10:31:56.898Z,98810.52
2019-01-11T10:34:25.583Z,98814.30
2019-01-11T10:36:53.973Z,98806.00
2019-01-11T10:39:22.364Z,98803.75
2019-01-11T10:41:50.768Z,98807.20
2019-01-11T10:44:19.158Z,98806.04
2019-01-11T10:49:36.645Z,98802.72
2019-01-11T10:52:05.173Z,98801.44
2019-01-11T10:54:52.919Z,98792.17
2019-01-11T10:57:21.331Z,98788.55
2019-01-11T10:59:50.024Z,98786.78
2019-01-11T11:02:18.432Z,98782.95
2019-01-11T11:04:46.819Z,98777.72
2019-01-11T11:07:15.204Z,98773.00
2019-01-11T11:09:43.611Z,98770.23
2019-01-11T11:12:12.324Z,98769.47
2019-01-11T11:14:40.729Z,98770.89
2019-01-11T11:17:09.198Z,98769.40
2019-01-11T11:19:37.586Z,98764.91
2019-01-11T11:22:05.993Z,98763.47
2019-01-11T11:24:34.384Z,98762.58
2019-01-11T11:27:03.108Z,98759.25
2019-01-11T11:29:31.513Z,98751.25
2019-01-11T11:31:59.905Z,98738.30
2019-01-11T11:34:28.651Z,98736.59
2019-01-11T11:37:37.022Z,98731.22
2019-01-11T11:40:45.319Z,98735.31
2019-01-11T11:43:13.748Z,98734.70
2019-01-11T11:45:42.139Z,98727.78
2019-01-11T11:48:50.454Z,98729.39
2019-01-11T11:51:18.844Z,98723.41
2019-01-11T11:53:47.233Z,98721.22
2019-01-11T11:56:15.904Z,98720.55
2019-01-11T11:58:44.293Z,98717.52
2019-01-11T12:01:12.972Z,98704.59
2019-01-11T12:03:41.371Z,98707.69
2019-01-11T12:06:09.763Z,98711.25
2019-01-11T12:08:38.428Z,98711.99
2019-01-11T12:11:06.816Z,98707.44
2019-01-11T12:13:35.476Z,98700.27
2019-01-11T12:16:03.956Z,98697.55
2019-01-11T12:18:32.342Z,98693.40
2019-01-11T12:21:00.730Z,98691.77
2019-01-11T12:23:29.133Z,98691.13
2019-01-11T12:25:57.593Z,98688.83
2019-01-11T12:28:26.217Z,98685.97
2019-01-11T12:30:54.619Z,98679.82
2019-01-11T12:33:23.008Z,98675.59
2019-01-11T12:35:51.400Z,98667.59
2019-01-11T12:38:19.870Z,98675.87
2019-01-11T12:40:48.279Z,98681.90
2019-01-11T12:43:16.668Z,98690.74
2019-01-11T12:45:45.324Z,98678.78
2019-01-11T12:48:14.009Z,98675.80
2019-01-11T12:50:42.435Z,98669.86
2019-01-11T12:53:10.792Z,98667.60
2019-01-11T12:55:39.250Z,98671.78
2019-01-11T12:58:07.640Z,98670.61
2019-01-11T13:00:36.184Z,98663.52
2019-01-11T13:03:44.477Z,98658.87
2019-01-11T13:09:47.737Z,98644.36
2019-01-11T13:12:16.145Z,98645.37
2019-01-11T13:14:44.807Z,98649.88
2019-01-11T13:17:13.492Z,98649.30
2019-01-11T13:19:41.896Z,98645.12
2019-01-11T13:22:10.284Z,98636.49
2019-01-11T13:24:38.765Z,98643.94
2019-01-11T13:27:07.173Z,98645.67
2019-01-11T13:29:35.892Z,98644.84
2019-01-11T13:34:59.589Z,98646.45
2019-01-11T13:37:28.273Z,98645.89
2019-01-11T13:39:56.699Z,98647.53
2019-01-11T13:42:25.332Z,98642.70
2019-01-11T13:44:53.963Z,98643.59
2019-01-11T13:47:22.367Z,98637.66
2019-01-11T13:49:51.012Z,98636.37
2019-01-11T13:52:19.412Z,98651.63
2019-01-11T13:54:47.802Z,98646.66
2019-01-11T13:57:16.200Z,98641.94
2019-01-11T13:59:44.592Z,98640.95
2019-01-11T14:02:13.003Z,98637.98
2019-01-11T14:04:41.458Z,98628.95
2019-01-11T14:07:09.939Z,98636.77
2019-01-11T14:09:38.345Z,98639.91
2019-01-11T14:12:06.733Z,98641.95
2019-01-11T14:14:35.120Z,98638.23
2019-01-11T14:17:03.600Z,98642.84
2019-01-11T14:19:31.987Z,98639.73
2019-01-11T14:22:00.398Z,98643.55
2019-01-11T14:24:28.795Z,98640.88
2019-01-11T14:26:57.491Z,98653.23
2019-01-11T14:29:26.213Z,98658.89
2019-01-11T14:31:54.601Z,98657.38
2019-01-11T14:34:23.007Z,98651.11
2019-01-11T14:36:51.720Z,98647.21
2019-01-11T14:39:20.175Z,98647.43
2019-01-11T14:41:49.011Z,98653.36
2019-01-11T14:44:17.777Z,98648.70
2019-01-11T14:46:46.233Z,98652.25
2019-01-11T14:49:14.950Z,98651.30
2019-01-11T14:51:43.347Z,98654.22
2019-01-11T14:54:11.740Z,98663.44
2019-01-11T14:56:40.146Z,98656.77
2019-01-11T14:59:08.536Z,98665.12
2019-01-11T15:01:36.928Z,98671.16
2019-01-11T15:04:05.503Z,98660.17
2019-01-11T15:06:33.889Z,98672.36
2019-01-11T15:09:02.363Z,98671.73
2019-01-11T15:11:31.093Z,98665.73
2019-01-11T15:13:59.462Z,98661.05
2019-01-11T15:16:28.855Z,98661.99
2019-01-11T15:18:57.247Z,98651.05
2019-01-11T15:21:25.918Z,98651.05
2019-01-11T15:23:54.601Z,98657.69
2019-01-11T15:26:23.292Z,98651.49
2019-01-11T15:28:51.677Z,98653.24
2019-01-11T15:31:20.087Z,98648.62
2019-01-11T15:33:48.735Z,98649.91
2019-01-11T15:36:17.123Z,98658.06
2019-01-11T15:38:45.598Z,98663.39
2019-01-11T15:41:14.009Z,98654.63
2019-01-11T15:43:42.658Z,98661.09
2019-01-11T15:46:15.030Z,98658.34
2019-01-11T15:48:46.686Z,98649.89
2019-01-11T15:51:17.237Z,98652.66
2019-01-11T15:53:45.896Z,98655.46
2019-01-11T15:56:14.359Z,98652.20
2019-01-11T15:58:42.765Z,98648.58
2019-01-11T16:01:11.155Z,98654.89
2019-01-11T16:03:39.828Z,98643.89
2019-01-11T16:06:26.085Z,98643.30
2019-01-11T16:09:16.109Z,98650.36
2019-01-11T16:11:47.654Z,98655.17
2019-01-11T16:14:35.388Z,98661.17
2019-01-11T16:17:07.523Z,98652.95
2019-01-11T16:19:36.156Z,98652.03
2019-01-11T16:22:05.567Z,98650.18
2019-01-11T16:24:34.371Z,98647.96
2019-01-11T16:27:02.759Z,98646.51
2019-01-11T16:29:31.162Z,98642.42
2019-01-11T16:31:59.604Z,98633.23
2019-01-11T16:34:27.941Z,98639.62
2019-01-11T16:36:56.351Z,98641.46
2019-01-11T16:39:24.846Z,98634.69
2019-01-11T16:41:53.558Z,98637.48
2019-01-11T16:44:21.957Z,98641.74
2019-01-11T16:46:50.345Z,98632.44
2019-01-11T16:49:19.059Z,98637.89
2019-01-11T16:51:47.447Z,98634.72
2019-01-11T16:54:15.839Z,98635.80
2019-01-11T16:56:44.245Z,98642.44
2019-01-11T16:59:12.628Z,98639.39
2019-01-11T17:01:41.354Z,98634.59
2019-01-11T17:04:10.036Z,98632.84
2019-01-11T17:06:38.800Z,98631.58
2019-01-11T17:09:08.981Z,98637.25
2019-01-11T17:11:37.512Z,98637.45
2019-01-11T17:14:06.762Z,98637.61
2019-01-11T17:16:35.411Z,98647.22
2019-01-11T17:19:04.237Z,98649.20
2019-01-11T17:21:32.649Z,98645.19
2019-01-11T17:24:01.273Z,98642.61
2019-01-11T17:26:29.944Z,98644.08
2019-01-11T17:28:58.733Z,98642.66
2019-01-11T17:31:27.422Z,98651.95
2019-01-11T17:33:55.816Z,98648.33
2019-01-11T17:36:24.223Z,98649.50
2019-01-11T17:38:52.685Z,98641.47
2019-01-11T17:41:21.146Z,98644.20
2019-01-11T17:43:49.552Z,98636.26
2019-01-11T17:46:17.959Z,98636.32
2019-01-11T17:48:46.331Z,98634.56
2019-01-11T17:51:14.841Z,98640.91
2019-01-11T17:53:43.228Z,98634.22
2019-01-11T17:56:11.651Z,98635.05
2019-01-11T17:58:40.065Z,98644.23
2019-01-11T18:01:08.454Z,98644.61
2019-01-11T18:03:36.843Z,98648.95
2019-01-11T18:06:05.648Z,98646.20
2019-01-11T18:08:34.342Z,98640.14
2019-01-11T18:11:03.017Z,98641.39
2019-01-11T18:13:31.415Z,98645.19
2019-01-11T18:16:00.113Z,98641.25
2019-01-11T18:18:28.879Z,98638.52
2019-01-11T18:20:57.560Z,98633.23
2019-01-11T18:23:26.200Z,98641.80
2019-01-11T18:25:54.607Z,98644.91
2019-01-11T18:28:22.994Z,98640.39
2019-01-11T18:30:51.382Z,98645.96
2019-01-11T18:33:19.810Z,98639.91
2019-01-11T18:35:48.218Z,98641.61
2019-01-11T18:38:16.609Z,98641.94
2019-01-11T18:40:45.312Z,98632.59
2019-01-11T18:43:13.697Z,98643.82
2019-01-11T18:45:42.085Z,98641.21
2019-01-11T18:48:10.745Z,98636.83
2019-01-11T18:50:39.430Z,98637.69
2019-01-11T18:53:13.670Z,98635.36
2019-01-11T18:55:38.451Z,98636.08
2019-01-11T18:58:06.835Z,98635.47
2019-01-11T19:00:35.226Z,98638.70
2019-01-11T19:03:03.886Z,98637.10
2019-01-11T19:05:32.277Z,98637.74
2019-01-11T19:08:00.953Z,98637.00
2019-01-11T19:10:29.346Z,98624.86
2019-01-11T19:12:58.017Z,98629.63
2019-01-11T19:15:27.745Z,98632.15
2019-01-11T19:17:56.371Z,98631.56
2019-01-11T19:20:27.046Z,98628.97
2019-01-11T19:22:55.591Z,98628.27
2019-01-11T19:25:24.050Z,98630.73
2019-01-11T19:27:53.337Z,98636.03
2019-01-11T19:30:27.735Z,98637.49
2019-01-11T19:32:56.203Z,98642.81
2019-01-11T19:35:24.591Z,98648.09
2019-01-11T19:37:53.288Z,98646.96
2019-01-11T19:40:21.680Z,98649.34
2019-01-11T19:42:50.142Z,98647.33
2019-01-11T19:45:19.039Z,98646.02
2019-01-11T19:47:47.409Z,98645.21
2019-01-11T19:50:21.517Z,98650.26
2019-01-11T19:52:50.648Z,98645.08
2019-01-11T19:55:19.704Z,98644.00
2019-01-11T19:57:48.524Z,98647.96
2019-01-11T20:00:36.513Z,98648.23
2019-01-11T20:03:05.254Z,98649.48
2019-01-11T20:05:33.826Z,98643.75
2019-01-11T20:08:02.174Z,98639.41
2019-01-11T20:11:10.468Z,98628.82
2019-01-11T20:13:39.109Z,98632.24
2019-01-11T20:16:07.802Z,98626.09
2019-01-11T20:18:36.476Z,98632.42
2019-01-11T20:21:05.005Z,98632.27
2019-01-11T20:23:36.603Z,98631.38
2019-01-11T20:28:57.866Z,98637.11
2019-01-11T20:31:26.247Z,98630.80
2019-01-11T20:33:54.643Z,98631.57
2019-01-11T20:36:23.113Z,98628.61
2019-01-11T20:38:52.076Z,98630.59
2019-01-11T20:41:40.152Z,98628.87
2019-01-11T20:44:08.543Z,98628.55
2019-01-11T20:46:36.929Z,98631.92
2019-01-11T20:49:05.662Z,98628.80
2019-01-11T20:51:34.348Z,98633.80
2019-01-11T20:54:02.746Z,98642.39
2019-01-11T20:59:06.824Z,98634.56
2019-01-11T21:01:35.528Z,98640.95
2019-01-11T21:06:58.672Z,98630.41
2019-01-11T21:09:27.057Z,98632.75
2019-01-11T21:11:55.456Z,98632.17
2019-01-11T21:14:23.915Z,98630.08
2019-01-11T21:16:52.659Z,98631.20
2019-01-11T21:19:21.301Z,98628.05
2019-01-11T21:21:49.707Z,98633.58
2019-01-11T21:24:18.116Z,98629.61
2019-01-11T21:26:46.504Z,98633.91
2019-01-11T21:29:14.910Z,98633.97
2019-01-11T21:31:43.310Z,98628.55
2019-01-11T21:34:12.008Z,98627.77
2019-01-11T21:36:40.402Z,98633.53
2019-01-11T21:39:08.888Z,98633.85
2019-01-11T21:41:37.556Z,98635.91
2019-01-11T21:44:06.016Z,98643.03
2019-01-11T21:46:34.421Z,98649.89
2019-01-11T21:49:03.046Z,98651.69
2019-01-11T21:51:31.435Z,98642.10
2019-01-11T21:53:59.899Z,98645.75
2019-01-11T21:56:40.476Z,98639.72
2019-01-11T21:58:58.675Z,98648.98
2019-01-11T22:01:27.069Z,98649.09
2019-01-11T22:03:55.457Z,98648.59
2019-01-11T22:06:24.108Z,98651.13
2019-01-11T22:08:52.796Z,98654.02
2019-01-11T22:11:40.841Z,98654.65
2019-01-11T22:14:09.228Z,98650.78
2019-01-11T22:16:37.900Z,98652.27
2019-01-11T22:19:06.588Z,98648.51
2019-01-11T22:21:35.271Z,98652.13
2019-01-11T22:24:03.749Z,98657.50
2019-01-11T22:26:32.157Z,98653.19
2019-01-11T22:29:00.547Z,98656.52
2019-01-11T22:31:29.009Z,98662.95
2019-01-11T22:33:57.437Z,98656.16
2019-01-11T22:36:25.832Z,98656.21
2019-01-11T22:38:54.536Z,98653.17
2019-01-11T22:41:22.941Z,98645.80
2019-01-11T22:43:51.327Z,98656.67
2019-01-11T22:46:19.982Z,98654.84
2019-01-11T22:48:48.670Z,98647.95
2019-01-11T22:51:17.058Z,98641.02
2019-01-11T22:53:45.442Z,98645.56
2019-01-11T22:56:14.113Z,98640.52
2019-01-11T22:58:42.793Z,98635.09
2019-01-11T23:01:51.157Z,98641.95
2019-01-11T23:04:21.306Z,98642.78
2019-01-11T23:07:10.370Z,98646.98
2019-01-11T23:10:18.914Z,98639.87
2019-01-11T23:13:27.221Z,98638.78
2019-01-11T23:15:55.682Z,98633.58
2019-01-11T23:18:24.396Z,98636.77
2019-01-11T23:20:52.804Z,98642.77
2019-01-11T23:23:21.197Z,98637.84
2019-01-11T23:25:49.658Z,98641.36
2019-01-11T23:28:18.066Z,98637.59
2019-01-11T23:30:46.455Z,98643.30
2019-01-11T23:33:34.191Z,98643.98
2019-01-11T23:36:02.596Z,98654.80
2019-01-11T23:38:30.990Z,98652.58
2019-01-11T23:40:59.380Z,98658.49
2019-01-11T23:43:27.789Z,98659.05
2019-01-11T23:45:56.177Z,98660.44
2019-01-11T23:48:24.567Z,98658.80
2019-01-11T23:53:47.180Z,98661.27
2019-01-11T23:56:15.573Z,98655.53
2019-01-11T23:58:43.960Z,98666.31
